LIEO/OLB METAR and TAF weather

Enter ICAO airport designator
Station Type Date Time Source
LIEO METAR 2022/01/23 11:20 UTC NOAA

LIEO 231120Z VRB02KT CAVOK 13/04 Q1030


Station Type Date Time Source
LIEO Decoded METAR 2022/01/23 11:20 UTC NOAA

Olbia / Costa Smeralda, Italy (LIEO) 40-54N 009-31E 13M
Jan 23, 2022 - 06:20 AM EST / 2022.01.23 1120 UTC
Wind: Variable at 2 MPH (2 KT):0
Visibility: greater than 7 mile(s):0
Temperature: 55 F (13 C)
Dew Point: 39 F (4 C)
Relative Humidity: 54%
Pressure (altimeter): 30.42 in. Hg (1030 hPa)
ob: LIEO 231120Z VRB02KT CAVOK 13/04 Q1030
cycle: 11

Station Type Date Time Source
LIEO TAF 2022/01/23 12:21 UTC NOAA

TAF LIEO 231100Z 2312/2412 VRB05KT 9999 FEW020

Example: see airport list